createdAt,value
2023-02-25T00:00:50.996Z,3.60
2023-02-25T00:03:20.217Z,3.60
2023-02-25T00:05:48.238Z,3.60
2023-02-25T00:08:16.538Z,3.50
2023-02-25T00:10:45.988Z,3.50
2023-02-25T00:13:18.372Z,3.50
2023-02-25T00:15:50.802Z,3.50
2023-02-25T00:18:18.785Z,3.50
2023-02-25T00:20:46.881Z,3.50
2023-02-25T00:23:14.839Z,3.50
2023-02-25T00:25:42.853Z,3.40
2023-02-25T00:28:10.880Z,3.40
2023-02-25T00:30:40.770Z,3.40
2023-02-25T00:33:11.020Z,3.40
2023-02-25T00:35:39.795Z,3.40
2023-02-25T00:38:15.627Z,3.40
2023-02-25T00:40:44.756Z,3.40
2023-02-25T00:43:12.722Z,3.40
2023-02-25T00:45:41.276Z,3.40
2023-02-25T00:48:10.595Z,3.40
2023-02-25T00:50:39.811Z,3.40
2023-02-25T00:53:07.828Z,3.40
2023-02-25T00:55:35.795Z,3.40
2023-02-25T00:58:03.824Z,3.40
2023-02-25T01:00:46.433Z,3.40
2023-02-25T01:03:20.575Z,3.40
2023-02-25T01:05:49.867Z,3.40
2023-02-25T01:08:20.834Z,3.40
2023-02-25T01:10:48.930Z,3.50
2023-02-25T01:13:16.952Z,3.40
2023-02-25T01:15:44.991Z,3.50
2023-02-25T01:18:13.023Z,3.50
2023-02-25T01:20:42.370Z,3.50
2023-02-25T01:23:10.389Z,3.50
2023-02-25T01:25:40.250Z,3.50
2023-02-25T01:28:08.270Z,3.40
2023-02-25T01:30:37.016Z,3.50
2023-02-25T01:33:05.111Z,3.50
2023-02-25T01:35:33.099Z,3.40
2023-02-25T01:38:02.432Z,3.40
2023-02-25T01:40:30.388Z,3.40
2023-02-25T01:42:58.369Z,3.40
2023-02-25T01:45:39.144Z,3.50
2023-02-25T01:48:10.528Z,3.50
2023-02-25T01:50:43.219Z,3.50
2023-02-25T01:53:16.912Z,3.50
2023-02-25T01:55:45.154Z,3.50
2023-02-25T01:58:13.649Z,3.50
2023-02-25T02:00:41.747Z,3.50
2023-02-25T02:03:15.914Z,3.50
2023-02-25T02:05:49.121Z,3.50
2023-02-25T02:08:18.677Z,3.60
2023-02-25T02:10:46.601Z,3.60
2023-02-25T02:13:15.851Z,3.60
2023-02-25T02:15:48.739Z,3.60
2023-02-25T02:18:17.318Z,3.60
2023-02-25T02:20:51.647Z,3.60
2023-02-25T02:23:41.220Z,3.70
2023-02-25T02:26:33.379Z,3.70
2023-02-25T02:29:19.008Z,3.70
2023-02-25T02:31:52.499Z,3.70
2023-02-25T02:34:31.326Z,3.70
2023-02-25T02:37:06.714Z,3.80
2023-02-25T02:39:45.644Z,3.80
2023-02-25T02:42:17.236Z,3.80
2023-02-25T02:44:50.505Z,3.80
2023-02-25T02:47:25.579Z,3.80
2023-02-25T02:50:01.693Z,3.80
2023-02-25T02:52:30.964Z,3.90
2023-02-25T02:55:01.914Z,3.90
2023-02-25T02:57:30.588Z,3.90
2023-02-25T03:00:00.190Z,3.90
2023-02-25T03:02:31.739Z,3.90
2023-02-25T03:05:04.067Z,3.90
2023-02-25T03:07:33.659Z,3.90
2023-02-25T03:10:02.922Z,3.90
2023-02-25T03:12:31.109Z,3.90
2023-02-25T03:15:00.306Z,3.90
2023-02-25T03:17:30.522Z,3.90
2023-02-25T03:20:02.093Z,3.90
2023-02-25T03:22:32.607Z,3.90
2023-02-25T03:25:06.538Z,3.90
2023-02-25T03:27:34.961Z,4.00
2023-02-25T03:30:06.065Z,4.00
2023-02-25T03:32:38.197Z,4.00
2023-02-25T03:35:09.196Z,4.00
2023-02-25T03:37:38.923Z,4.00
2023-02-25T03:40:11.976Z,4.00
2023-02-25T03:42:43.023Z,4.00
2023-02-25T03:45:13.607Z,4.00
2023-02-25T03:47:43.445Z,4.00
2023-02-25T03:50:13.520Z,4.00
2023-02-25T03:52:41.876Z,4.10
2023-02-25T03:55:12.158Z,4.00
2023-02-25T03:57:41.086Z,4.00
2023-02-25T04:00:16.044Z,4.00
2023-02-25T04:02:46.457Z,4.00
2023-02-25T04:05:14.813Z,4.00
2023-02-25T04:07:44.012Z,4.00
2023-02-25T04:10:13.146Z,4.00
2023-02-25T04:12:43.473Z,4.00
2023-02-25T04:15:14.041Z,4.00
2023-02-25T04:17:42.180Z,4.00
2023-02-25T04:20:12.609Z,3.90
2023-02-25T04:22:40.644Z,3.90
2023-02-25T04:25:09.066Z,3.90
2023-02-25T04:27:37.080Z,3.90
2023-02-25T04:30:05.434Z,3.90
2023-02-25T04:32:33.492Z,3.90
2023-02-25T04:35:03.494Z,3.90
2023-02-25T04:37:32.922Z,3.90
2023-02-25T04:40:00.873Z,3.90
2023-02-25T04:42:28.904Z,3.90
2023-02-25T04:44:57.113Z,3.80
2023-02-25T04:47:25.128Z,3.80
2023-02-25T04:49:53.061Z,3.80
2023-02-25T04:52:21.037Z,3.80
2023-02-25T04:54:50.435Z,3.80
2023-02-25T04:57:21.353Z,3.70
2023-02-25T04:59:49.447Z,3.70
2023-02-25T05:02:17.413Z,3.70
2023-02-25T05:04:45.610Z,3.70
2023-02-25T05:07:14.796Z,3.70
2023-02-25T05:09:42.805Z,3.70
2023-02-25T05:12:12.167Z,3.60
2023-02-25T05:14:40.137Z,3.60
2023-02-25T05:17:08.273Z,3.60
2023-02-25T05:19:36.600Z,3.60
2023-02-25T05:22:04.746Z,3.60
2023-02-25T05:24:32.855Z,3.60
2023-02-25T05:27:04.816Z,3.50
2023-02-25T05:29:34.152Z,3.50
2023-02-25T05:32:05.284Z,3.50
2023-02-25T05:34:33.371Z,3.50
2023-02-25T05:37:01.334Z,3.50
2023-02-25T05:39:29.402Z,3.50
2023-02-25T05:41:59.250Z,3.50
2023-02-25T05:44:27.239Z,3.50
2023-02-25T05:46:58.366Z,3.50
2023-02-25T05:49:26.366Z,3.40
2023-02-25T05:51:54.475Z,3.40
2023-02-25T05:54:22.465Z,3.40
2023-02-25T05:56:51.589Z,3.40
2023-02-25T05:59:19.647Z,3.40
2023-02-25T06:01:47.708Z,3.30
2023-02-25T06:04:18.887Z,3.30
2023-02-25T06:06:50.340Z,3.30
2023-02-25T06:09:21.046Z,3.30
2023-02-25T06:11:49.537Z,3.20
2023-02-25T06:14:17.560Z,3.20
2023-02-25T06:16:45.573Z,3.10
2023-02-25T06:19:13.555Z,3.10
2023-02-25T06:21:42.870Z,3.10
2023-02-25T06:24:11.574Z,3.00
2023-02-25T06:26:41.913Z,3.00
2023-02-25T06:29:11.569Z,3.00
2023-02-25T06:31:43.255Z,3.00
2023-02-25T06:34:12.637Z,3.00
2023-02-25T06:36:40.593Z,3.00
2023-02-25T06:39:11.566Z,2.90
2023-02-25T06:41:39.548Z,2.90
2023-02-25T06:44:07.585Z,2.90
2023-02-25T06:46:35.526Z,2.90
2023-02-25T06:49:03.508Z,2.90
2023-02-25T06:51:31.450Z,2.90
2023-02-25T06:53:59.631Z,2.90
2023-02-25T06:56:30.092Z,2.90
2023-02-25T06:58:59.449Z,2.90
2023-02-25T07:01:27.723Z,2.90
2023-02-25T07:03:56.583Z,3.00
2023-02-25T07:06:26.765Z,2.90
2023-02-25T07:08:54.715Z,2.90
2023-02-25T07:11:35.885Z,2.90
2023-02-25T07:14:04.298Z,2.90
2023-02-25T07:16:34.276Z,2.90
2023-02-25T07:19:02.793Z,2.90
2023-02-25T07:21:31.177Z,2.90
2023-02-25T07:23:59.386Z,2.90
2023-02-25T07:26:30.482Z,2.90
2023-02-25T07:29:00.543Z,2.90
2023-02-25T07:31:29.665Z,2.90
2023-02-25T07:34:00.081Z,2.90
2023-02-25T07:36:30.665Z,2.90
2023-02-25T07:38:58.663Z,2.90
2023-02-25T07:41:27.819Z,3.00
2023-02-25T07:43:55.822Z,3.00
2023-02-25T07:46:26.151Z,3.00
2023-02-25T07:48:54.209Z,3.10
2023-02-25T07:51:23.344Z,3.10
2023-02-25T07:53:52.604Z,3.10
2023-02-25T07:56:21.441Z,3.10
2023-02-25T07:58:49.395Z,3.10
2023-02-25T08:01:20.012Z,3.10
2023-02-25T08:03:57.860Z,3.20
2023-02-25T08:06:26.599Z,3.20
2023-02-25T08:08:55.340Z,3.20
2023-02-25T08:11:24.911Z,3.10
2023-02-25T08:13:53.161Z,3.10
2023-02-25T08:16:22.398Z,3.00
2023-02-25T08:18:53.001Z,3.00
2023-02-25T08:21:23.596Z,3.00
2023-02-25T08:23:53.669Z,3.00
2023-02-25T08:26:22.542Z,3.00
2023-02-25T08:28:50.896Z,3.00
2023-02-25T08:31:19.276Z,3.00
2023-02-25T08:33:49.384Z,3.00
2023-02-25T08:36:20.437Z,3.00
2023-02-25T08:38:48.955Z,3.10
2023-02-25T08:41:17.003Z,3.10
2023-02-25T08:43:45.189Z,3.10
2023-02-25T08:46:13.184Z,3.10
2023-02-25T08:48:41.169Z,3.20
2023-02-25T08:51:09.972Z,3.20
2023-02-25T08:53:39.918Z,3.20
2023-02-25T08:56:08.310Z,3.30
2023-02-25T08:58:36.721Z,3.30
2023-02-25T09:01:08.826Z,3.30
2023-02-25T09:03:36.971Z,3.40
2023-02-25T09:06:05.204Z,3.50
2023-02-25T09:08:33.130Z,3.60
2023-02-25T09:11:05.733Z,3.70
2023-02-25T09:13:34.006Z,3.70
2023-02-25T09:16:02.810Z,3.70
2023-02-25T09:18:31.173Z,3.70
2023-02-25T09:20:59.154Z,3.60
2023-02-25T09:23:28.595Z,3.50
2023-02-25T09:25:56.763Z,3.40
2023-02-25T09:28:26.239Z,3.40
2023-02-25T09:30:54.333Z,3.40
2023-02-25T09:33:22.341Z,3.30
2023-02-25T09:35:50.879Z,3.30
2023-02-25T09:38:18.924Z,3.40
2023-02-25T09:40:47.121Z,3.30
2023-02-25T09:43:19.932Z,3.20
2023-02-25T09:45:50.355Z,3.20
2023-02-25T09:48:20.781Z,3.20
2023-02-25T09:50:53.086Z,3.30
2023-02-25T09:53:24.093Z,3.30
2023-02-25T09:55:52.693Z,3.40
2023-02-25T09:58:25.134Z,3.40
2023-02-25T10:01:06.312Z,3.40
2023-02-25T10:03:43.460Z,3.50
2023-02-25T10:06:15.209Z,3.50
2023-02-25T10:08:45.925Z,3.50
2023-02-25T10:11:15.972Z,3.60
2023-02-25T10:13:47.532Z,3.70
2023-02-25T10:16:24.610Z,3.70
2023-02-25T10:19:01.418Z,3.70
2023-02-25T10:21:37.603Z,3.80
2023-02-25T10:24:12.621Z,3.80
2023-02-25T10:26:42.546Z,3.90
2023-02-25T10:29:14.167Z,3.80
2023-02-25T10:31:45.638Z,3.80
2023-02-25T10:34:20.331Z,3.70
2023-02-25T10:36:53.239Z,3.60
2023-02-25T10:39:21.214Z,3.60
2023-02-25T10:41:50.044Z,3.60
2023-02-25T10:44:18.087Z,3.60
2023-02-25T10:46:51.025Z,3.60
2023-02-25T10:49:20.995Z,3.60
2023-02-25T10:51:58.393Z,3.60
2023-02-25T10:54:26.372Z,3.50
2023-02-25T10:56:55.746Z,3.50
2023-02-25T10:59:26.244Z,3.60
2023-02-25T11:01:56.473Z,3.60
2023-02-25T11:04:31.136Z,3.60
2023-02-25T11:07:02.226Z,3.70
2023-02-25T11:09:36.975Z,3.70
2023-02-25T11:12:12.846Z,3.80
2023-02-25T11:14:40.889Z,3.80
2023-02-25T11:17:13.948Z,3.80
2023-02-25T11:19:43.505Z,3.80
2023-02-25T11:22:17.044Z,3.80
2023-02-25T11:24:46.997Z,3.80
2023-02-25T11:27:24.301Z,3.90
2023-02-25T11:30:01.204Z,3.90
2023-02-25T11:32:32.290Z,4.00
2023-02-25T11:35:04.964Z,4.00
2023-02-25T11:37:43.066Z,4.10
2023-02-25T11:40:25.679Z,4.20
2023-02-25T11:43:03.534Z,4.20
2023-02-25T11:45:41.461Z,4.20
2023-02-25T11:48:17.592Z,4.30
2023-02-25T11:50:48.642Z,4.30
2023-02-25T11:53:22.688Z,4.40
2023-02-25T11:55:56.632Z,4.40
2023-02-25T11:58:30.426Z,4.40
2023-02-25T12:01:01.129Z,4.50
2023-02-25T12:03:43.466Z,4.50
2023-02-25T12:06:17.378Z,4.50
2023-02-25T12:08:53.408Z,4.50
2023-02-25T12:11:44.112Z,4.50
2023-02-25T12:14:24.664Z,4.60
2023-02-25T12:17:01.421Z,4.80
2023-02-25T12:19:51.914Z,4.90
2023-02-25T12:22:47.250Z,4.90
2023-02-25T12:25:21.325Z,5.00
2023-02-25T12:27:58.992Z,4.90
2023-02-25T12:30:41.817Z,4.90
2023-02-25T12:33:14.716Z,5.10
2023-02-25T12:36:03.794Z,5.10
2023-02-25T12:38:49.976Z,5.30
2023-02-25T12:41:25.699Z,5.30
2023-02-25T12:43:55.004Z,5.40
2023-02-25T12:46:28.068Z,5.40
2023-02-25T12:49:14.666Z,5.50
2023-02-25T12:51:54.345Z,5.60
2023-02-25T12:54:40.027Z,5.80
2023-02-25T12:57:14.769Z,6.00
2023-02-25T12:59:53.650Z,6.20
2023-02-25T13:02:35.513Z,6.40
2023-02-25T13:05:10.452Z,6.60
2023-02-25T13:07:49.386Z,6.40
2023-02-25T13:10:38.237Z,6.20
2023-02-25T13:13:17.592Z,6.30
2023-02-25T13:15:54.000Z,6.40
2023-02-25T13:18:25.037Z,6.40
2023-02-25T13:21:13.773Z,6.60
2023-02-25T13:23:58.105Z,7.00
2023-02-25T13:26:41.342Z,7.60
2023-02-25T13:29:30.383Z,7.60
2023-02-25T13:32:14.247Z,7.30
2023-02-25T13:34:45.956Z,6.80
2023-02-25T13:37:20.116Z,6.50
2023-02-25T13:39:59.401Z,6.60
2023-02-25T13:42:48.454Z,6.60
2023-02-25T13:45:46.414Z,6.40
2023-02-25T13:48:29.601Z,6.40
2023-02-25T13:51:06.719Z,6.10
2023-02-25T13:53:42.931Z,6.10
2023-02-25T13:56:28.381Z,6.00
2023-02-25T13:59:03.105Z,6.20
2023-02-25T14:01:43.126Z,6.50
2023-02-25T14:04:36.203Z,6.30
2023-02-25T14:07:21.996Z,6.50
2023-02-25T14:09:57.044Z,6.70
2023-02-25T14:12:34.344Z,6.40
2023-02-25T14:15:20.021Z,6.30
2023-02-25T14:17:53.641Z,6.50
2023-02-25T14:20:33.211Z,6.50
2023-02-25T14:23:05.282Z,6.30
2023-02-25T14:25:43.157Z,6.10
2023-02-25T14:28:15.477Z,6.30
2023-02-25T14:30:52.345Z,6.50
2023-02-25T14:33:30.436Z,6.70
2023-02-25T14:36:07.185Z,6.70
2023-02-25T14:38:42.181Z,6.90
2023-02-25T14:41:15.506Z,6.90
2023-02-25T14:43:44.605Z,6.70
2023-02-25T14:46:18.190Z,6.90
2023-02-25T14:48:51.676Z,7.10
2023-02-25T14:51:34.486Z,7.10
2023-02-25T14:54:20.088Z,7.10
2023-02-25T14:56:52.874Z,7.20
2023-02-25T14:59:37.055Z,7.10
2023-02-25T15:02:22.694Z,7.10
2023-02-25T15:04:58.100Z,7.00
2023-02-25T15:07:33.999Z,7.20
2023-02-25T15:10:19.906Z,7.30
2023-02-25T15:13:05.826Z,7.30
2023-02-25T15:15:50.460Z,7.20
2023-02-25T15:18:23.264Z,7.10
2023-02-25T15:20:53.385Z,7.00
2023-02-25T15:23:22.031Z,7.10
2023-02-25T15:25:53.667Z,7.30
2023-02-25T15:28:34.695Z,7.30
2023-02-25T15:31:29.568Z,7.10
2023-02-25T15:34:16.984Z,7.30
2023-02-25T15:36:49.887Z,7.40
2023-02-25T15:39:45.559Z,7.50
2023-02-25T15:42:13.733Z,7.70
2023-02-25T15:44:44.026Z,7.40
2023-02-25T15:47:28.637Z,7.20
2023-02-25T15:49:57.898Z,7.00
2023-02-25T15:52:44.557Z,7.00
2023-02-25T15:55:21.039Z,7.00
2023-02-25T15:57:49.187Z,7.00
2023-02-25T16:00:34.878Z,7.00
2023-02-25T16:03:08.433Z,7.10
2023-02-25T16:05:42.438Z,7.00
2023-02-25T16:08:17.414Z,6.90
2023-02-25T16:10:49.054Z,6.70
2023-02-25T16:13:17.965Z,6.60
2023-02-25T16:15:47.760Z,6.60
2023-02-25T16:18:18.235Z,6.60
2023-02-25T16:20:48.217Z,6.50
2023-02-25T16:23:16.867Z,6.40
2023-02-25T16:25:49.517Z,6.20
2023-02-25T16:28:24.842Z,6.20
2023-02-25T16:30:55.726Z,6.10
2023-02-25T16:33:26.018Z,6.00
2023-02-25T16:36:06.983Z,5.90
2023-02-25T16:38:40.378Z,5.80
2023-02-25T16:41:13.865Z,5.60
2023-02-25T16:43:43.153Z,5.50
2023-02-25T16:46:12.837Z,5.50
2023-02-25T16:48:50.129Z,5.50
2023-02-25T16:51:24.571Z,5.40
2023-02-25T16:54:04.725Z,5.30
2023-02-25T16:56:34.305Z,5.30
2023-02-25T16:59:05.151Z,5.30
2023-02-25T17:01:34.152Z,5.20
2023-02-25T17:04:03.541Z,5.20
2023-02-25T17:06:31.521Z,5.10
2023-02-25T17:08:59.538Z,5.10
2023-02-25T17:11:27.680Z,5.00
2023-02-25T17:13:58.857Z,4.90
2023-02-25T17:16:29.177Z,4.80
2023-02-25T17:18:58.398Z,4.80
2023-02-25T17:21:30.501Z,4.70
2023-02-25T17:23:59.433Z,4.60
2023-02-25T17:26:27.601Z,4.50
2023-02-25T17:28:58.594Z,4.30
2023-02-25T17:31:28.004Z,4.30
2023-02-25T17:33:57.038Z,4.20
2023-02-25T17:36:26.476Z,4.20
2023-02-25T17:38:56.442Z,4.10
2023-02-25T17:41:25.261Z,4.00
2023-02-25T17:43:53.665Z,4.00
2023-02-25T17:46:36.338Z,3.90
2023-02-25T17:49:05.921Z,3.90
2023-02-25T17:51:35.230Z,3.80
2023-02-25T17:54:06.120Z,3.70
2023-02-25T17:56:35.321Z,3.60
2023-02-25T17:59:08.401Z,3.50
2023-02-25T18:01:53.957Z,3.40
2023-02-25T18:04:26.639Z,3.30
2023-02-25T18:06:58.276Z,3.30
2023-02-25T18:09:52.451Z,3.30
2023-02-25T18:12:24.334Z,3.20
2023-02-25T18:14:57.073Z,3.10
2023-02-25T18:17:28.320Z,3.10
2023-02-25T18:19:57.499Z,3.10
2023-02-25T18:22:28.071Z,3.10
2023-02-25T18:24:56.762Z,3.00
2023-02-25T18:27:30.272Z,3.00
2023-02-25T18:29:59.730Z,2.80
2023-02-25T18:32:29.073Z,2.80
2023-02-25T18:34:58.723Z,2.80
2023-02-25T18:37:28.081Z,2.80
2023-02-25T18:39:56.065Z,2.70
2023-02-25T18:42:24.447Z,2.70
2023-02-25T18:44:54.231Z,2.70
2023-02-25T18:47:22.412Z,2.70
2023-02-25T18:49:51.810Z,2.60
2023-02-25T18:52:21.448Z,2.50
2023-02-25T18:54:49.525Z,2.50
2023-02-25T18:57:19.102Z,2.40
2023-02-25T18:59:47.054Z,2.40
2023-02-25T19:02:23.778Z,2.40
2023-02-25T19:04:55.962Z,2.40
2023-02-25T19:07:27.686Z,2.30
2023-02-25T19:09:56.241Z,2.30
2023-02-25T19:12:24.936Z,2.30
2023-02-25T19:14:55.512Z,2.40
2023-02-25T19:17:23.497Z,2.40
2023-02-25T19:19:51.674Z,2.30
2023-02-25T19:22:21.039Z,2.30
2023-02-25T19:24:49.563Z,2.30
2023-02-25T19:27:20.347Z,2.30
2023-02-25T19:29:48.858Z,2.20
2023-02-25T19:32:25.803Z,2.10
2023-02-25T19:34:53.752Z,2.20
2023-02-25T19:37:27.834Z,2.10
2023-02-25T19:39:55.830Z,2.10
2023-02-25T19:42:24.071Z,2.10
2023-02-25T19:44:52.095Z,2.10
2023-02-25T19:47:20.151Z,2.10
2023-02-25T19:49:48.530Z,2.10
2023-02-25T19:52:16.517Z,2.10
2023-02-25T19:54:45.858Z,2.00
2023-02-25T19:57:13.850Z,2.00
2023-02-25T19:59:44.572Z,2.00
2023-02-25T20:02:15.338Z,2.00
2023-02-25T20:04:43.726Z,2.00
2023-02-25T20:07:11.841Z,2.00
2023-02-25T20:09:42.289Z,1.90
2023-02-25T20:12:12.318Z,1.90
2023-02-25T20:14:40.335Z,1.90
2023-02-25T20:17:08.461Z,1.90
2023-02-25T20:19:36.517Z,1.80
2023-02-25T20:22:05.565Z,1.80
2023-02-25T20:24:33.985Z,1.90
2023-02-25T20:27:02.051Z,1.80
2023-02-25T20:29:31.471Z,1.80
2023-02-25T20:31:59.654Z,1.80
2023-02-25T20:34:28.150Z,1.80
2023-02-25T20:36:58.150Z,1.80
2023-02-25T20:39:31.071Z,1.80
2023-02-25T20:41:59.137Z,1.80
2023-02-25T20:44:27.251Z,1.80
2023-02-25T20:46:58.004Z,1.20
2023-02-25T20:49:26.406Z,1.80
2023-02-25T20:51:54.674Z,1.80
2023-02-25T20:54:22.650Z,1.80
2023-02-25T20:56:50.936Z,1.80
2023-02-25T20:59:19.611Z,1.80
2023-02-25T21:01:50.427Z,1.80
2023-02-25T21:04:19.861Z,1.80
2023-02-25T21:06:47.957Z,1.80
2023-02-25T21:09:15.990Z,1.90
2023-02-25T21:11:43.922Z,1.80
2023-02-25T21:14:11.925Z,1.80
2023-02-25T21:16:40.219Z,1.80
2023-02-25T21:19:08.675Z,1.90
2023-02-25T21:21:38.092Z,1.50
2023-02-25T21:24:06.536Z,1.80
2023-02-25T21:26:34.677Z,1.80
2023-02-25T21:29:03.110Z,1.80
2023-02-25T21:31:31.197Z,1.80
2023-02-25T21:33:59.665Z,1.80
2023-02-25T21:36:41.559Z,1.70
2023-02-25T21:39:11.384Z,1.70
2023-02-25T21:41:44.404Z,1.70
2023-02-25T21:44:13.140Z,1.60
2023-02-25T21:46:41.260Z,1.60
2023-02-25T21:49:10.490Z,1.60
2023-02-25T21:51:40.200Z,1.60
2023-02-25T21:54:08.395Z,1.30
2023-02-25T21:56:37.732Z,1.60
2023-02-25T21:59:06.620Z,1.60
2023-02-25T22:01:37.646Z,1.50
2023-02-25T22:04:06.054Z,1.50
2023-02-25T22:06:34.370Z,1.50
2023-02-25T22:09:02.544Z,1.50
2023-02-25T22:11:31.633Z,1.50
2023-02-25T22:14:05.496Z,1.40
2023-02-25T22:16:33.661Z,1.40
2023-02-25T22:19:01.650Z,1.40
2023-02-25T22:21:30.557Z,1.30
2023-02-25T22:23:59.571Z,1.40
2023-02-25T22:26:28.547Z,1.30
2023-02-25T22:28:59.336Z,1.30
2023-02-25T22:31:28.800Z,1.20
2023-02-25T22:33:57.353Z,1.20
2023-02-25T22:36:25.686Z,1.20
2023-02-25T22:38:54.230Z,1.20
2023-02-25T22:41:22.930Z,1.20
2023-02-25T22:43:51.287Z,1.20
2023-02-25T22:46:21.788Z,1.20
2023-02-25T22:48:51.507Z,1.10
2023-02-25T22:51:20.263Z,1.10
2023-02-25T22:53:48.410Z,1.10
2023-02-25T22:56:23.760Z,1.10
2023-02-25T22:58:56.746Z,1.00
2023-02-25T23:01:25.678Z,1.00
2023-02-25T23:03:55.727Z,1.00
2023-02-25T23:06:37.429Z,1.00
2023-02-25T23:09:12.582Z,1.00
2023-02-25T23:11:44.557Z,1.00
2023-02-25T23:14:12.735Z,1.00
2023-02-25T23:16:41.536Z,0.90
2023-02-25T23:19:12.899Z,0.90
2023-02-25T23:21:40.912Z,0.90
2023-02-25T23:24:09.634Z,0.90
2023-02-25T23:26:39.349Z,0.80
2023-02-25T23:29:08.313Z,0.80
2023-02-25T23:31:36.921Z,0.80
2023-02-25T23:34:08.895Z,0.70
2023-02-25T23:36:41.962Z,0.70
2023-02-25T23:39:10.925Z,0.60
2023-02-25T23:41:39.145Z,0.60
2023-02-25T23:44:08.417Z,0.60
2023-02-25T23:46:36.776Z,0.60
2023-02-25T23:49:07.919Z,0.60
2023-02-25T23:51:37.867Z,0.60
2023-02-25T23:54:07.349Z,0.60
2023-02-25T23:56:35.526Z,0.60
2023-02-25T23:59:03.851Z,0.50
